createdAt,value
2022-12-17T00:02:18.499Z,86.73
2022-12-17T00:05:03.997Z,83.87
2022-12-17T00:07:49.495Z,82.20
2022-12-17T00:10:35.050Z,82.97
2022-12-17T00:13:20.570Z,81.07
2022-12-17T00:16:10.200Z,83.93
2022-12-17T00:18:56.787Z,77.13
2022-12-17T00:21:42.375Z,79.60
2022-12-17T00:24:27.767Z,81.27
2022-12-17T00:27:13.405Z,79.87
2022-12-17T00:29:58.887Z,80.60
2022-12-17T00:32:44.216Z,77.63
2022-12-17T00:35:31.147Z,78.13
2022-12-17T00:38:16.507Z,89.80
2022-12-17T00:41:02.090Z,84.80
2022-12-17T00:43:47.678Z,82.83
2022-12-17T00:46:33.036Z,81.37
2022-12-17T00:49:29.898Z,85.37
2022-12-17T00:52:16.401Z,84.27
2022-12-17T00:55:01.901Z,86.07
2022-12-17T00:57:47.249Z,84.53
2022-12-17T01:00:32.546Z,88.33
2022-12-17T01:03:24.940Z,88.67
2022-12-17T01:06:10.318Z,89.47
2022-12-17T01:08:57.077Z,82.80
2022-12-17T01:11:42.647Z,85.70
2022-12-17T01:14:27.305Z,92.23
2022-12-17T01:17:12.844Z,94.57
2022-12-17T01:19:58.285Z,85.60
2022-12-17T01:22:43.724Z,89.67
2022-12-17T01:25:30.436Z,93.73
2022-12-17T01:28:15.959Z,95.63
2022-12-17T01:31:01.503Z,90.83
2022-12-17T01:33:46.863Z,96.50
2022-12-17T01:36:31.526Z,95.57
2022-12-17T01:39:16.992Z,98.57
2022-12-17T01:42:03.806Z,92.30
2022-12-17T01:45:05.577Z,89.53
2022-12-17T01:47:56.411Z,91.23
2022-12-17T01:50:44.434Z,91.50
2022-12-17T01:53:30.317Z,100.47
2022-12-17T01:56:16.663Z,90.47
2022-12-17T01:59:03.581Z,96.23
2022-12-17T02:01:49.243Z,104.50
2022-12-17T02:04:35.304Z,90.67
2022-12-17T02:07:44.671Z,93.23
2022-12-17T02:10:41.416Z,82.77
2022-12-17T02:13:34.269Z,94.23
2022-12-17T02:16:27.437Z,95.63
2022-12-17T02:19:19.058Z,94.20
2022-12-17T02:22:12.864Z,94.53
2022-12-17T02:25:07.044Z,97.73
2022-12-17T02:27:54.096Z,105.27
2022-12-17T02:30:39.630Z,103.50
2022-12-17T02:33:25.890Z,114.83
2022-12-17T02:36:16.543Z,117.27
2022-12-17T02:39:10.444Z,128.93
2022-12-17T02:41:59.451Z,109.33
2022-12-17T02:44:47.610Z,104.13
2022-12-17T02:47:34.249Z,117.33
2022-12-17T02:50:19.778Z,108.27
2022-12-17T02:53:07.135Z,110.83
2022-12-17T02:55:52.709Z,116.13
2022-12-17T02:58:38.192Z,113.23
2022-12-17T03:01:25.040Z,116.43
2022-12-17T03:04:10.305Z,129.63
2022-12-17T03:06:55.730Z,116.20
2022-12-17T03:09:41.136Z,123.67
2022-12-17T03:12:26.628Z,126.37
2022-12-17T03:15:12.070Z,113.30
2022-12-17T03:17:58.906Z,121.00
2022-12-17T03:20:44.442Z,112.57
2022-12-17T03:23:30.776Z,114.13
2022-12-17T03:26:17.860Z,115.30
2022-12-17T03:29:03.212Z,112.43
2022-12-17T03:31:48.631Z,104.43
2022-12-17T03:34:35.354Z,102.97
2022-12-17T03:37:23.753Z,100.00
2022-12-17T03:40:09.102Z,102.60
2022-12-17T03:42:54.524Z,100.83
2022-12-17T03:45:40.060Z,91.97
2022-12-17T03:48:26.853Z,102.50
2022-12-17T03:51:14.406Z,95.27
2022-12-17T03:53:59.885Z,99.27
2022-12-17T03:56:45.458Z,95.47
2022-12-17T03:59:30.875Z,99.50
2022-12-17T04:02:15.833Z,98.43
2022-12-17T04:05:01.369Z,100.70
2022-12-17T04:07:48.056Z,101.50
2022-12-17T04:10:33.564Z,92.07
2022-12-17T04:13:18.880Z,93.57
2022-12-17T04:16:04.412Z,99.17
2022-12-17T04:18:49.533Z,92.27
2022-12-17T04:21:35.040Z,78.00
2022-12-17T04:24:21.822Z,91.70
2022-12-17T04:27:07.190Z,86.67
2022-12-17T04:29:52.692Z,80.33
2022-12-17T04:32:38.041Z,82.40
2022-12-17T04:35:24.357Z,74.13
2022-12-17T04:38:09.878Z,76.20
2022-12-17T04:40:52.934Z,70.97
2022-12-17T04:43:38.961Z,60.10
2022-12-17T04:46:24.850Z,67.43
2022-12-17T04:49:10.138Z,66.33
2022-12-17T04:51:55.621Z,58.20
2022-12-17T04:54:41.110Z,52.20
2022-12-17T04:57:27.798Z,49.47
2022-12-17T05:00:13.241Z,51.07
2022-12-17T05:02:58.825Z,51.93
2022-12-17T05:05:44.223Z,51.47
2022-12-17T05:08:29.612Z,52.30
2022-12-17T05:11:19.652Z,45.30
2022-12-17T05:14:06.428Z,44.47
2022-12-17T05:16:51.849Z,42.67
2022-12-17T05:19:37.297Z,41.80
2022-12-17T05:22:22.756Z,37.90
2022-12-17T05:25:08.294Z,41.20
2022-12-17T05:27:53.762Z,41.63
2022-12-17T05:30:40.552Z,44.10
2022-12-17T05:33:26.870Z,45.93
2022-12-17T05:36:12.522Z,34.93
2022-12-17T05:38:58.014Z,39.43
2022-12-17T05:41:43.615Z,40.20
2022-12-17T05:44:29.007Z,35.97
2022-12-17T05:47:15.932Z,40.67
2022-12-17T05:50:16.035Z,37.43
2022-12-17T05:53:01.476Z,34.40
2022-12-17T05:55:46.650Z,35.27
2022-12-17T05:58:43.632Z,36.73
2022-12-17T06:01:29.085Z,32.10
2022-12-17T06:04:15.759Z,35.67
2022-12-17T06:07:01.038Z,32.53
2022-12-17T06:09:46.427Z,28.20
2022-12-17T06:12:40.153Z,30.43
2022-12-17T06:15:26.484Z,30.97
2022-12-17T06:18:16.688Z,30.30
2022-12-17T06:21:04.359Z,32.13
2022-12-17T06:23:49.867Z,29.40
2022-12-17T06:26:35.343Z,30.37
2022-12-17T06:29:20.770Z,28.17
2022-12-17T06:32:06.316Z,28.33
2022-12-17T06:34:51.867Z,29.70
2022-12-17T06:37:38.661Z,29.40
2022-12-17T06:40:25.041Z,31.77
2022-12-17T06:43:14.189Z,31.03
2022-12-17T06:46:00.264Z,32.27
2022-12-17T06:48:45.821Z,28.57
2022-12-17T06:51:31.258Z,30.40
2022-12-17T06:54:18.062Z,28.97
2022-12-17T06:56:59.793Z,28.03
2022-12-17T06:59:45.351Z,29.83
2022-12-17T07:02:31.052Z,30.83
2022-12-17T07:05:16.376Z,27.30
2022-12-17T07:08:01.712Z,32.20
2022-12-17T07:10:48.523Z,34.87
2022-12-17T07:13:34.165Z,30.70
2022-12-17T07:16:19.842Z,39.20
2022-12-17T07:19:05.103Z,31.27
2022-12-17T07:21:50.548Z,34.00
2022-12-17T07:24:35.758Z,33.17
2022-12-17T07:27:22.312Z,35.30
2022-12-17T07:30:07.812Z,34.10
2022-12-17T07:32:53.409Z,33.07
2022-12-17T07:35:39.739Z,33.87
2022-12-17T07:38:25.073Z,36.53
2022-12-17T07:41:10.452Z,42.13
2022-12-17T07:43:57.110Z,37.53
2022-12-17T07:46:42.487Z,37.23
2022-12-17T07:49:27.870Z,31.83
2022-12-17T07:52:28.073Z,36.70
2022-12-17T07:55:18.101Z,31.13
2022-12-17T07:58:03.442Z,31.03
2022-12-17T08:00:50.383Z,34.30
2022-12-17T08:03:36.100Z,37.30
2022-12-17T08:06:36.375Z,32.07
2022-12-17T08:09:21.104Z,30.30
2022-12-17T08:12:06.414Z,28.77
2022-12-17T08:14:52.024Z,29.90
2022-12-17T08:17:38.810Z,33.97
2022-12-17T08:20:25.592Z,30.40
2022-12-17T08:23:10.964Z,30.00
2022-12-17T08:25:52.662Z,33.37
2022-12-17T08:28:53.632Z,27.87
2022-12-17T08:31:39.402Z,32.40
2022-12-17T08:34:26.128Z,37.57
2022-12-17T08:37:11.565Z,33.43
2022-12-17T08:40:08.432Z,31.37
2022-12-17T08:42:53.814Z,32.47
2022-12-17T08:45:39.375Z,26.90
2022-12-17T08:48:26.235Z,27.03
2022-12-17T08:51:13.017Z,33.20
2022-12-17T08:53:58.485Z,32.87
2022-12-17T08:56:44.615Z,55.40
2022-12-17T08:59:29.838Z,47.87
2022-12-17T09:02:15.577Z,35.87
2022-12-17T09:05:01.201Z,29.67
2022-12-17T09:07:47.918Z,30.60
2022-12-17T09:10:33.498Z,29.00
2022-12-17T09:13:20.342Z,24.53
2022-12-17T09:16:10.733Z,37.00
2022-12-17T09:18:56.049Z,30.73
2022-12-17T09:21:41.567Z,34.07
2022-12-17T09:24:28.680Z,31.83
2022-12-17T09:27:14.264Z,29.20
2022-12-17T09:29:59.616Z,28.07
2022-12-17T09:32:45.072Z,32.63
2022-12-17T09:35:30.755Z,34.67
2022-12-17T09:38:16.618Z,30.33
2022-12-17T09:41:06.581Z,35.67
2022-12-17T09:44:02.004Z,32.73
2022-12-17T09:46:54.068Z,28.43
2022-12-17T09:49:45.076Z,28.33
2022-12-17T09:52:41.183Z,28.30
2022-12-17T09:55:39.410Z,33.50
2022-12-17T09:58:36.720Z,32.07
2022-12-17T10:01:23.225Z,29.53
2022-12-17T10:04:09.041Z,34.27
2022-12-17T10:06:54.769Z,32.13
2022-12-17T10:09:40.420Z,31.93
2022-12-17T10:12:32.419Z,28.53
2022-12-17T10:15:19.199Z,29.77
2022-12-17T10:18:04.772Z,27.80
2022-12-17T10:20:54.852Z,29.80
2022-12-17T10:23:44.479Z,29.50
2022-12-17T10:26:35.592Z,32.43
2022-12-17T10:29:28.151Z,29.33
2022-12-17T10:32:18.869Z,25.50
2022-12-17T10:35:05.831Z,30.37
2022-12-17T10:37:53.853Z,26.43
2022-12-17T10:40:44.488Z,28.67
2022-12-17T10:43:45.784Z,31.10
2022-12-17T10:46:33.812Z,32.50
2022-12-17T10:49:28.931Z,25.73
2022-12-17T10:52:23.934Z,34.60
2022-12-17T10:55:19.041Z,30.53
2022-12-17T10:58:05.842Z,28.03
2022-12-17T11:00:53.053Z,30.40
2022-12-17T11:03:52.344Z,34.20
2022-12-17T11:06:43.985Z,30.17
2022-12-17T11:09:40.300Z,44.03
2022-12-17T11:12:31.107Z,28.93
2022-12-17T11:15:22.822Z,33.40
2022-12-17T11:18:11.688Z,31.17
2022-12-17T11:21:04.570Z,31.00
2022-12-17T11:23:52.828Z,43.03
2022-12-17T11:26:39.891Z,31.93
2022-12-17T11:29:30.864Z,32.33
2022-12-17T11:32:28.997Z,44.07
2022-12-17T11:35:24.468Z,31.90
2022-12-17T11:38:18.775Z,34.10
2022-12-17T11:41:13.050Z,34.20
2022-12-17T11:44:09.096Z,37.77
2022-12-17T11:47:02.654Z,32.40
2022-12-17T11:49:58.901Z,35.03
2022-12-17T11:52:51.420Z,33.33
2022-12-17T11:55:44.078Z,32.83
2022-12-17T11:58:37.632Z,32.93
2022-12-17T12:01:38.604Z,39.10
2022-12-17T12:04:35.463Z,44.70
2022-12-17T12:07:28.118Z,35.17
2022-12-17T12:10:18.715Z,38.03
2022-12-17T12:13:17.313Z,36.73
2022-12-17T12:16:16.870Z,39.33
2022-12-17T12:19:11.962Z,36.20
2022-12-17T12:21:59.280Z,36.13
2022-12-17T12:25:04.482Z,69.30
2022-12-17T12:27:59.555Z,40.50
2022-12-17T12:30:53.641Z,30.60
2022-12-17T12:33:48.922Z,34.67
2022-12-17T12:36:37.761Z,38.03
2022-12-17T12:39:23.767Z,36.83
2022-12-17T12:42:15.132Z,32.03
2022-12-17T12:45:08.247Z,34.33
2022-12-17T12:48:02.523Z,65.37
2022-12-17T12:50:59.202Z,41.27
2022-12-17T12:53:44.700Z,37.80
2022-12-17T12:56:46.981Z,43.57
2022-12-17T12:59:44.791Z,37.53
2022-12-17T13:02:48.331Z,47.93
2022-12-17T13:05:33.909Z,39.77
2022-12-17T13:08:20.726Z,51.10
2022-12-17T13:10:49.052Z,38.73
2022-12-17T13:13:28.609Z,35.97
2022-12-17T13:16:00.684Z,37.30
2022-12-17T13:18:33.074Z,40.63
2022-12-17T13:21:03.239Z,38.10
2022-12-17T13:23:35.158Z,38.10
2022-12-17T13:26:19.705Z,39.00
2022-12-17T13:29:00.935Z,40.33
2022-12-17T13:31:31.019Z,38.77
2022-12-17T13:34:09.286Z,37.83
2022-12-17T13:36:47.603Z,35.80
2022-12-17T13:39:34.988Z,32.30
2022-12-17T13:42:03.413Z,40.90
2022-12-17T13:44:36.940Z,37.90
2022-12-17T13:47:05.515Z,35.93
2022-12-17T13:49:33.721Z,39.60
2022-12-17T13:52:09.591Z,41.37
2022-12-17T13:54:40.464Z,43.30
2022-12-17T13:57:10.197Z,37.30
2022-12-17T13:59:38.945Z,41.30
2022-12-17T14:02:07.113Z,32.67
2022-12-17T14:04:34.961Z,34.33
2022-12-17T14:07:06.293Z,105.03
2022-12-17T14:09:36.693Z,31.60
2022-12-17T14:12:25.677Z,37.67
2022-12-17T14:14:57.060Z,35.27
2022-12-17T14:17:26.944Z,36.83
2022-12-17T14:20:00.156Z,34.23
2022-12-17T14:22:34.467Z,32.77
2022-12-17T14:25:02.949Z,34.50
2022-12-17T14:27:35.236Z,35.37
2022-12-17T14:30:04.282Z,38.60
2022-12-17T14:32:35.895Z,38.97
2022-12-17T14:35:04.434Z,40.10
2022-12-17T14:37:32.374Z,36.97
2022-12-17T14:40:03.907Z,74.00
2022-12-17T14:42:36.719Z,39.63
2022-12-17T14:45:08.373Z,41.23
2022-12-17T14:47:37.846Z,49.10
2022-12-17T14:50:08.758Z,43.23
2022-12-17T14:52:43.019Z,44.57
2022-12-17T14:55:30.713Z,42.50
2022-12-17T14:58:21.757Z,39.23
2022-12-17T15:01:01.887Z,39.67
2022-12-17T15:03:32.984Z,40.40
2022-12-17T15:06:03.614Z,40.17
2022-12-17T15:08:36.915Z,38.13
2022-12-17T15:11:05.294Z,41.10
2022-12-17T15:13:34.472Z,46.47
2022-12-17T15:16:02.167Z,49.47
2022-12-17T15:18:30.177Z,47.00
2022-12-17T15:20:57.935Z,49.73
2022-12-17T15:23:26.134Z,43.60
2022-12-17T15:25:55.463Z,44.27
2022-12-17T15:28:26.252Z,41.40
2022-12-17T15:30:55.395Z,43.80
2022-12-17T15:33:23.193Z,44.20
2022-12-17T15:35:50.957Z,43.10
2022-12-17T15:38:18.677Z,44.57
2022-12-17T15:40:46.454Z,47.87
2022-12-17T15:43:13.660Z,47.50
2022-12-17T15:45:43.450Z,47.40
2022-12-17T15:48:13.781Z,41.97
2022-12-17T15:50:41.555Z,43.43
2022-12-17T15:53:09.870Z,39.60
2022-12-17T15:55:38.112Z,40.37
2022-12-17T15:58:07.154Z,37.27
2022-12-17T16:00:35.171Z,40.53
2022-12-17T16:03:02.947Z,41.03
2022-12-17T16:05:32.089Z,67.30
2022-12-17T16:08:02.380Z,45.10
2022-12-17T16:10:31.148Z,41.37
2022-12-17T16:12:58.899Z,45.17
2022-12-17T16:15:26.678Z,44.20
2022-12-17T16:17:54.453Z,39.43
2022-12-17T16:20:22.567Z,51.17
2022-12-17T16:22:51.637Z,39.67
2022-12-17T16:25:19.449Z,42.87
2022-12-17T16:27:47.224Z,40.97
2022-12-17T16:30:15.299Z,51.37
2022-12-17T16:32:43.012Z,48.73
2022-12-17T16:35:10.945Z,45.60
2022-12-17T16:37:38.659Z,39.80
2022-12-17T16:40:09.616Z,45.97
2022-12-17T16:42:37.402Z,42.43
2022-12-17T16:45:06.022Z,39.70
2022-12-17T16:47:33.760Z,44.77
2022-12-17T16:50:01.504Z,43.87
2022-12-17T16:52:29.241Z,45.10
2022-12-17T16:54:56.963Z,41.90
2022-12-17T16:57:26.089Z,49.63
2022-12-17T16:59:53.815Z,49.80
2022-12-17T17:02:21.645Z,41.93
2022-12-17T17:04:49.501Z,44.47
2022-12-17T17:07:17.175Z,53.23
2022-12-17T17:09:44.913Z,51.57
2022-12-17T17:12:13.514Z,50.23
2022-12-17T17:14:44.224Z,48.90
2022-12-17T17:17:12.007Z,50.03
2022-12-17T17:19:39.805Z,45.17
2022-12-17T17:22:07.502Z,48.47
2022-12-17T17:24:35.236Z,45.60
2022-12-17T17:27:02.946Z,38.73
2022-12-17T17:29:30.697Z,54.30
2022-12-17T17:32:15.106Z,58.80
2022-12-17T17:34:43.060Z,52.80
2022-12-17T17:37:11.166Z,50.70
2022-12-17T17:39:38.889Z,48.07
2022-12-17T17:42:07.138Z,48.73
2022-12-17T17:44:35.331Z,55.50
2022-12-17T17:47:04.828Z,54.00
2022-12-17T17:49:32.594Z,62.87
2022-12-17T17:52:15.635Z,49.83
2022-12-17T17:54:43.431Z,52.87
2022-12-17T17:57:11.725Z,53.00
2022-12-17T17:59:40.342Z,61.63
2022-12-17T18:02:11.401Z,53.47
2022-12-17T18:04:39.871Z,51.53
2022-12-17T18:09:55.587Z,52.53
2022-12-17T18:12:42.088Z,51.20
2022-12-17T18:15:15.691Z,52.30
2022-12-17T18:17:46.470Z,46.93
2022-12-17T18:20:15.154Z,41.93
2022-12-17T18:22:43.263Z,44.93
2022-12-17T18:25:11.030Z,44.53
2022-12-17T18:27:38.771Z,43.50
2022-12-17T18:30:08.021Z,52.30
2022-12-17T18:32:35.766Z,48.70
2022-12-17T18:35:05.214Z,46.33
2022-12-17T18:37:32.983Z,48.97
2022-12-17T18:40:00.762Z,48.47
2022-12-17T18:42:46.009Z,45.60
2022-12-17T18:45:13.774Z,47.57
2022-12-17T18:47:42.537Z,42.47
2022-12-17T18:50:12.982Z,43.80
2022-12-17T18:52:40.716Z,42.63
2022-12-17T18:55:11.463Z,35.53
2022-12-17T18:57:39.181Z,36.20
2022-12-17T19:00:08.496Z,44.67
2022-12-17T19:02:36.407Z,38.20
2022-12-17T19:05:04.608Z,44.13
2022-12-17T19:07:33.647Z,46.83
2022-12-17T19:10:01.381Z,41.13
2022-12-17T19:12:29.180Z,37.53
2022-12-17T19:14:57.145Z,41.67
2022-12-17T19:17:26.429Z,40.03
2022-12-17T19:19:54.183Z,39.57
2022-12-17T19:22:21.998Z,37.43
2022-12-17T19:24:51.155Z,46.63
2022-12-17T19:27:18.905Z,52.93
2022-12-17T19:29:49.712Z,38.80
2022-12-17T19:32:17.935Z,49.57
2022-12-17T19:34:45.680Z,47.27
2022-12-17T19:37:13.416Z,42.40
2022-12-17T19:39:41.201Z,50.87
2022-12-17T19:42:24.583Z,52.27
2022-12-17T19:44:53.095Z,46.23
2022-12-17T19:47:21.074Z,49.80
2022-12-17T19:49:49.150Z,51.43
2022-12-17T19:52:16.910Z,46.77
2022-12-17T19:54:44.859Z,45.00
2022-12-17T19:57:13.904Z,51.33
2022-12-17T19:59:41.605Z,59.13
2022-12-17T20:02:10.630Z,43.27
2022-12-17T20:04:38.558Z,48.47
2022-12-17T20:07:06.278Z,48.13
2022-12-17T20:09:33.998Z,43.57
2022-12-17T20:12:01.717Z,51.07
2022-12-17T20:14:31.540Z,47.80
2022-12-17T20:17:01.221Z,42.30
2022-12-17T20:19:31.156Z,40.43
2022-12-17T20:22:00.101Z,43.83
2022-12-17T20:24:31.464Z,38.97
2022-12-17T20:27:00.393Z,37.40
2022-12-17T20:29:30.075Z,34.77
2022-12-17T20:31:57.970Z,39.97
2022-12-17T20:34:26.228Z,45.30
2022-12-17T20:36:54.573Z,41.97
2022-12-17T20:39:27.112Z,40.10
2022-12-17T20:41:56.236Z,38.10
2022-12-17T20:44:24.171Z,45.00
2022-12-17T20:46:53.350Z,44.23
2022-12-17T20:49:21.109Z,42.63
2022-12-17T20:51:48.914Z,43.87
2022-12-17T20:54:16.645Z,38.73
2022-12-17T20:56:44.498Z,39.63
2022-12-17T20:59:16.510Z,41.57
2022-12-17T21:01:44.837Z,44.27
2022-12-17T21:04:15.493Z,51.63
2022-12-17T21:06:45.675Z,45.23
2022-12-17T21:09:14.569Z,45.00
2022-12-17T21:11:42.932Z,48.10
2022-12-17T21:14:13.137Z,41.90
2022-12-17T21:16:41.760Z,70.27
2022-12-17T21:19:12.074Z,43.90
2022-12-17T21:21:41.553Z,40.97
2022-12-17T21:24:10.115Z,37.53
2022-12-17T21:26:40.011Z,41.90
2022-12-17T21:29:09.924Z,52.03
2022-12-17T21:31:40.708Z,39.47
2022-12-17T21:34:11.716Z,45.20
2022-12-17T21:36:41.163Z,47.93
2022-12-17T21:39:10.427Z,45.47
2022-12-17T21:41:44.320Z,42.53
2022-12-17T21:44:15.251Z,42.03
2022-12-17T21:46:44.015Z,47.20
2022-12-17T21:49:18.080Z,41.30
2022-12-17T21:51:47.571Z,48.63
2022-12-17T21:54:19.227Z,45.17
2022-12-17T21:56:47.345Z,39.90
2022-12-17T21:59:15.551Z,42.90
2022-12-17T22:01:43.478Z,38.30
2022-12-17T22:04:11.405Z,41.40
2022-12-17T22:06:45.649Z,37.47
2022-12-17T22:09:33.100Z,40.10
2022-12-17T22:12:31.006Z,42.60
2022-12-17T22:14:58.703Z,36.37
2022-12-17T22:17:27.108Z,41.93
2022-12-17T22:19:54.830Z,35.50
2022-12-17T22:22:22.560Z,43.83
2022-12-17T22:24:51.615Z,42.80
2022-12-17T22:27:19.443Z,40.93
2022-12-17T22:30:13.245Z,38.83
2022-12-17T22:32:58.420Z,43.13
2022-12-17T22:37:02.050Z,45.90
2022-12-17T22:41:00.125Z,38.67
2022-12-17T22:44:31.063Z,39.43
2022-12-17T22:44:43.846Z,38.05
2022-12-17T22:47:04.350Z,41.30
2022-12-17T22:49:32.427Z,39.20
2022-12-17T22:52:00.639Z,42.90
2022-12-17T22:54:28.553Z,43.30
2022-12-17T22:57:32.097Z,43.03
2022-12-17T22:59:45.766Z,45.57
2022-12-17T23:02:13.526Z,43.77
2022-12-17T23:04:41.541Z,50.87
2022-12-17T23:07:09.832Z,45.20
2022-12-17T23:09:37.575Z,43.20
2022-12-17T23:12:21.372Z,40.90
2022-12-17T23:14:49.113Z,42.57
2022-12-17T23:17:16.882Z,46.33
2022-12-17T23:19:44.633Z,46.57
2022-12-17T23:22:14.383Z,41.37
2022-12-17T23:24:45.170Z,40.70
2022-12-17T23:27:14.214Z,46.00
2022-12-17T23:29:41.955Z,48.37
2022-12-17T23:32:09.700Z,48.57
2022-12-17T23:34:37.508Z,44.23
2022-12-17T23:37:05.264Z,43.47
2022-12-17T23:39:33.202Z,49.47
2022-12-17T23:42:01.123Z,49.57
2022-12-17T23:44:30.175Z,49.27
2022-12-17T23:46:57.990Z,48.23
2022-12-17T23:49:26.083Z,47.60
2022-12-17T23:51:53.801Z,47.83
2022-12-17T23:54:21.518Z,53.63
2022-12-17T23:56:49.284Z,46.97
2022-12-17T23:59:17.023Z,48.27
